Catàleg de serveis del Meteocat
Campanya meteocatpedra

Dades de l'estació automàtica la Vall d'en Bas

?
?
Resum diari 21:30 TU
Dades diàries de l'estació meteorològica
Temperatura mitjana 16.5 °C
Temperatura màxima 17.8 °C 16:09 TU
Temperatura mínima 15.2 °C 21:53 TU
Humitat relativa mitjana 100%
Precipitació acumulada 7.7 mm
Ratxa màxima del vent (2 m) 13.0 km/h - 71º 9:59 TU
Irradiació solar global 1.1 MJ/m2

El tram horari està expressat en Temps Universal (TU). Cal sumar una hora en horari d'hivern i dues en horari d'estiu per passar a l'hora oficial.

la Vall d'en Bas

Metadades estació meteorol´gica
Municipi La Vall d'en Bas
Comarca Garrotxa
Altitud 461 m
Data alta 16.03.2000
Estat actual Operativa
Dades de període
Període
TU
TM
°C
TX
°C
TN
°C
HRM
%
PPT
mm
VVM (2 m)
km/h
DVM (2 m)
graus
VVX (2 m)
km/h
RS
W/m2
00:00 - 00:30 16.7 16.9 16.4 100 0.0 1.1 33 3.2 0
00:30 - 01:00 16.0 16.4 15.7 100 0.0 0.4 65 2.9 0
01:00 - 01:30 15.6 15.7 15.5 100 0.0 0.4 300 2.2 0
01:30 - 02:00 15.6 15.9 15.4 100 0.0 0.7 177 3.2 0
02:00 - 02:30 16.0 16.0 15.9 100 0.0 0.7 183 3.6 0
02:30 - 03:00 15.7 15.9 15.7 100 0.0 1.4 355 4.0 0
03:00 - 03:30 15.7 15.9 15.6 100 0.0 0.7 106 4.3 0
03:30 - 04:00 15.9 16.1 15.7 100 0.0 0.7 79 3.6 0
04:00 - 04:30 15.7 16.1 15.6 100 0.0 1.8 306 4.3 0
04:30 - 05:00 15.9 16.0 15.7 100 0.0 1.8 245 5.0 0
05:00 - 05:30 16.0 16.0 15.9 100 0.0 0.4 295 2.9 0
05:30 - 06:00 16.1 16.2 16.0 100 0.4 0.7 307 2.9 1
06:00 - 06:30 16.1 16.2 16.1 100 0.0 1.1 25 4.0 22
06:30 - 07:00 16.3 16.5 16.2 100 0.0 1.1 7 4.7 12
07:00 - 07:30 16.5 16.6 16.4 100 0.0 2.5 261 8.6 20
07:30 - 08:00 16.7 16.8 16.6 100 0.1 1.4 36 4.0 6
08:00 - 08:30 16.6 16.8 16.5 100 1.3 2.5 42 12.2 5
08:30 - 09:00 16.4 16.6 16.3 100 5.1 3.6 315 10.4 7
09:00 - 09:30 16.3 16.3 16.3 100 0.1 3.2 350 7.2 21
09:30 - 10:00 16.4 16.5 16.2 100 0.0 2.5 23 13.0 17
10:00 - 10:30 16.6 16.6 16.5 100 0.0 3.6 47 12.6 16
10:30 - 11:00 16.6 16.7 16.6 100 0.0 3.6 294 7.6 20
11:00 - 11:30 16.7 16.7 16.6 100 0.2 2.9 27 7.9 28
11:30 - 12:00 16.6 16.7 16.5 100 0.0 1.4 338 5.4 22
12:00 - 12:30 16.8 16.9 16.7 100 0.1 1.4 273 4.3 29
12:30 - 13:00 16.9 17.1 16.7 100 0.1 1.1 180 5.0 57
13:00 - 13:30 17.0 17.1 17.0 100 0.2 1.4 182 6.1 25
13:30 - 14:00 17.1 17.1 17.0 100 0.0 0.4 30 3.2 37
14:00 - 14:30 17.1 17.2 17.1 100 0.0 1.1 334 4.0 29
14:30 - 15:00 17.1 17.3 17.0 100 0.1 0.4 333 3.6 38
15:00 - 15:30 17.3 17.4 17.2 100 0.0 2.5 350 5.8 47
15:30 - 16:00 17.4 17.6 17.3 100 0.0 3.2 10 5.8 63
16:00 - 16:30 17.6 17.8 17.5 100 0.0 2.9 12 4.7 48
16:30 - 17:00 17.6 17.7 17.5 100 0.0 3.6 18 7.2 49
17:00 - 17:30 17.6 17.7 17.4 100 0.0 3.2 6 6.1 34
17:30 - 18:00 17.2 17.4 17.2 100 0.0 2.2 20 6.5 2
18:00 - 18:30 17.1 17.2 17.0 100 0.0 1.8 32 4.3 0
18:30 - 19:00 17.0 17.0 17.0 100 0.0 3.2 5 5.4 0
19:00 - 19:30 17.0 17.0 16.9 100 0.0 1.8 335 3.6 0
19:30 - 20:00 16.8 17.0 16.8 100 0.0 0.4 267 2.9 0
20:00 - 20:30 16.7 16.8 16.5 100 0.0 1.4 339 3.6 0
20:30 - 21:00 16.3 16.5 16.3 100 0.0 1.1 167 3.6 0
21:00 - 21:30 16.2 16.5 15.9 100 0.0 1.4 192 3.2 0
21:30 - 22:00 15.5 15.8 15.2 100 0.0 2.2 226 4.7 0

Les dades en taronja només han passat un control de qualitat automàtic. Resta pendent la seva validació definitiva.